»·PEaware :: N292AW KBUR-KSNA

N292AW :: KBUR-KSNA

FLIGHT INFORMATION

Flight Status: Arrived
Operator: Privately registered:
United States
More flights under this callsign
Pilot: Alex L. (10007)
Aircraft: CIRRUS VISIONJET
(SF50)
More flights by this aircraft type
Origin: KBUR Bob Hope-Burbank
United States
Destination: KSNA John Wayne-Orange Co
United States
More flights between these airports :: More routes between these airports
Route: VNY3 TWINE V518 KIMMO V459 SLI
File this flight plan on PilotEdge
Remarks:
Altitude:
(Current/Filed)
7,000ft
Speed:
(Current/Filed)
220kts
Departed: 08-May-19 04:00 PM
Arrived: 08-May-19 04:36 PM
Distance/Time
Traveled:
40nm/0:36
Distance/Time
To Go:
Arrived

Flight Plot

Page will automatically refresh every two minutes.


Map Options




Map Legend


Flown Route
Filed Route
Departure Airport
Arrival Airport
Navaid (VOR, NDB)
Fix

Horizontal Profiles

Position Reports

Time Latitude Longitude Heading Altitude Ground
Speed
08-May-19 15:40 34.196810 -118.351970 180 697ft 0kts
08-May-19 15:41 34.196810 -118.351970 179 697ft 0kts
08-May-19 15:42 34.196810 -118.351970 179 697ft 0kts
08-May-19 15:43 34.196810 -118.351970 179 697ft 0kts
08-May-19 15:44 34.196810 -118.351970 179 697ft 0kts
08-May-19 15:45 34.196810 -118.351970 179 697ft 0kts
08-May-19 15:46 34.196810 -118.351970 179 697ft 0kts
08-May-19 15:47 34.196810 -118.351970 179 697ft 0kts
08-May-19 15:48 34.196810 -118.351970 179 697ft 0kts
08-May-19 15:49 34.196810 -118.351970 179 697ft 0kts
08-May-19 15:50 34.196798 -118.351902 50 697ft 3kts
08-May-19 15:51 34.197202 -118.353907 280 701ft 22kts
08-May-19 15:52 34.200976 -118.355976 347 715ft 30kts
08-May-19 15:53 34.205035 -118.357099 346 731ft 9kts
08-May-19 15:54 34.207502 -118.357865 351 746ft 16kts
08-May-19 15:55 34.210448 -118.358383 349 758ft 0kts
08-May-19 15:56 34.210448 -118.358383 349 758ft 0kts
08-May-19 15:57 34.210448 -118.358383 349 758ft 0kts
08-May-19 15:58 34.210448 -118.358383 349 758ft 0kts
08-May-19 15:59 34.206079 -118.358761 167 742ft 101kts
08-May-19 16:00 34.169372 -118.348836 181 1274ft 138kts
08-May-19 16:02 34.143158 -118.374204 223 2405ft 99kts
08-May-19 16:03 34.119606 -118.402470 224 3560ft 144kts
08-May-19 16:04 34.101242 -118.447367 281 5562ft 180kts
08-May-19 16:05 34.113196 -118.510137 282 7581ft 204kts
08-May-19 16:06 34.146970 -118.557952 349 9099ft 240kts
08-May-19 16:07 34.217616 -118.580686 341 9095ft 267kts
08-May-19 16:08 34.285909 -118.606792 348 9070ft 254kts
08-May-19 16:09 34.339304 -118.555777 55 9086ft 257kts
08-May-19 16:10 34.376981 -118.483102 57 9118ft 253kts
08-May-19 16:11 34.386283 -118.409690 137 9115ft 260kts
08-May-19 16:12 34.320293 -118.365099 153 9161ft 261kts
08-May-19 16:13 34.258510 -118.329023 155 9096ft 242kts
08-May-19 16:14 34.198308 -118.294089 155 9036ft 242kts
08-May-19 16:15 34.138064 -118.259184 155 9022ft 241kts
08-May-19 16:16 34.077065 -118.223904 155 9032ft 260kts
08-May-19 16:17 34.010669 -118.185556 154 9141ft 271kts
08-May-19 16:18 33.952390 -118.151956 154 8309ft 232kts
08-May-19 16:19 33.895874 -118.119420 154 7728ft 256kts
08-May-19 16:20 33.864278 -118.101251 154 7429ft 254kts
08-May-19 16:21 33.857689 -118.097464 154 7356ft 254kts
08-May-19 16:22 33.799987 -118.064255 152 7133ft 240kts
08-May-19 16:23 33.793368 -118.005356 71 6704ft 246kts
08-May-19 16:23 33.806474 -117.955264 71 5868ft 244kts
08-May-19 16:25 33.824359 -117.887043 71 4824ft 231kts
08-May-19 16:26 33.857365 -117.846851 31 3719ft 233kts
08-May-19 16:27 33.920941 -117.798434 31 3012ft 209kts
08-May-19 16:28 33.932210 -117.726057 111 3050ft 213kts
08-May-19 16:28 33.898376 -117.698129 223 2943ft 191kts
08-May-19 16:30 33.857648 -117.750862 216 3022ft 200kts
08-May-19 16:31 33.809462 -117.783890 209 3026ft 191kts
08-May-19 16:31 33.771481 -117.808054 208 2105ft 176kts
08-May-19 16:33 33.728870 -117.835125 208 926ft 134kts
08-May-19 16:33 33.704989 -117.850207 208 448ft 89kts
08-May-19 16:34 33.684338 -117.863329 209 146ft 83kts
08-May-19 16:35 33.673719 -117.867444 135 60ft 16kts

Navigation Log

Ident Type
Flight plan parsing failed, navigation log unavailable